sensor_id;sensor_type;location;lat;lon;timestamp;pressure;altitude;pressure_sealevel;temperature;humidity
3122;BME280;1571;52.524;14.104;2024-03-02T00:01:09;100095.78;;;7.25;100.00
3122;BME280;1571;52.524;14.104;2024-03-02T00:03:38;100092.16;;;7.12;100.00
3122;BME280;1571;52.524;14.104;2024-03-02T00:06:06;100091.91;;;7.31;100.00
3122;BME280;1571;52.524;14.104;2024-03-02T00:08:35;100091.50;;;7.53;100.00
3122;BME280;1571;52.524;14.104;2024-03-02T00:11:03;100093.56;;;7.48;100.00
3122;BME280;1571;52.524;14.104;2024-03-02T00:13:33;100083.81;;;7.34;100.00
3122;BME280;1571;52.524;14.104;2024-03-02T00:16:03;100085.16;;;7.56;100.00
3122;BME280;1571;52.524;14.104;2024-03-02T00:18:34;100071.13;;;7.98;100.00
3122;BME280;1571;52.524;14.104;2024-03-02T00:21:05;100071.91;;;7.86;100.00
3122;BME280;1571;52.524;14.104;2024-03-02T00:23:36;100063.56;;;7.49;100.00
3122;BME280;1571;52.524;14.104;2024-03-02T00:26:05;100071.94;;;7.41;100.00
3122;BME280;1571;52.524;14.104;2024-03-02T00:28:37;100075.84;;;7.50;100.00
3122;BME280;1571;52.524;14.104;2024-03-02T00:31:06;100070.72;;;7.47;100.00
3122;BME280;1571;52.524;14.104;2024-03-02T00:33:36;100070.56;;;7.50;100.00
3122;BME280;1571;52.524;14.104;2024-03-02T00:36:06;100068.72;;;7.36;100.00
3122;BME280;1571;52.524;14.104;2024-03-02T00:38:44;100074.47;;;7.43;100.00
3122;BME280;1571;52.524;14.104;2024-03-02T00:41:17;100080.34;;;7.48;100.00
3122;BME280;1571;52.524;14.104;2024-03-02T00:43:57;100070.06;;;7.72;100.00
3122;BME280;1571;52.524;14.104;2024-03-02T00:46:27;100066.13;;;7.79;100.00
3122;BME280;1571;52.524;14.104;2024-03-02T00:48:58;100074.50;;;7.71;100.00
3122;BME280;1571;52.524;14.104;2024-03-02T00:51:29;100060.72;;;7.38;100.00
3122;BME280;1571;52.524;14.104;2024-03-02T00:53:59;100066.97;;;7.51;100.00
3122;BME280;1571;52.524;14.104;2024-03-02T00:56:28;100064.59;;;7.46;100.00
3122;BME280;1571;52.524;14.104;2024-03-02T00:58:57;100072.63;;;7.74;100.00
3122;BME280;1571;52.524;14.104;2024-03-02T01:01:26;100074.97;;;7.49;100.00
3122;BME280;1571;52.524;14.104;2024-03-02T01:03:54;100073.91;;;7.23;100.00
3122;BME280;1571;52.524;14.104;2024-03-02T01:06:23;100085.97;;;7.27;100.00
3122;BME280;1571;52.524;14.104;2024-03-02T01:08:51;100082.94;;;7.19;100.00
3122;BME280;1571;52.524;14.104;2024-03-02T01:11:20;100082.03;;;7.35;100.00
3122;BME280;1571;52.524;14.104;2024-03-02T01:13:50;100090.16;;;7.46;100.00
3122;BME280;1571;52.524;14.104;2024-03-02T01:16:21;100092.19;;;7.26;100.00
3122;BME280;1571;52.524;14.104;2024-03-02T01:18:49;100091.06;;;7.30;100.00
3122;BME280;1571;52.524;14.104;2024-03-02T01:21:18;100087.53;;;7.16;100.00
3122;BME280;1571;52.524;14.104;2024-03-02T01:23:46;100089.25;;;7.17;100.00
3122;BME280;1571;52.524;14.104;2024-03-02T01:26:15;100096.16;;;7.34;100.00
3122;BME280;1571;52.524;14.104;2024-03-02T01:28:44;100092.41;;;7.38;100.00
3122;BME280;1571;52.524;14.104;2024-03-02T01:31:12;100093.72;;;7.45;100.00
3122;BME280;1571;52.524;14.104;2024-03-02T01:33:41;100088.56;;;7.58;100.00
3122;BME280;1571;52.524;14.104;2024-03-02T01:36:10;100086.97;;;7.69;100.00
3122;BME280;1571;52.524;14.104;2024-03-02T01:38:38;100076.97;;;7.60;100.00
3122;BME280;1571;52.524;14.104;2024-03-02T01:41:06;100077.53;;;7.51;100.00
3122;BME280;1571;52.524;14.104;2024-03-02T01:43:35;100076.91;;;7.32;100.00
3122;BME280;1571;52.524;14.104;2024-03-02T01:46:07;100069.88;;;7.46;100.00
3122;BME280;1571;52.524;14.104;2024-03-02T01:48:36;100063.38;;;7.52;100.00
3122;BME280;1571;52.524;14.104;2024-03-02T01:51:06;100068.47;;;7.55;100.00
3122;BME280;1571;52.524;14.104;2024-03-02T01:53:35;100061.88;;;7.48;100.00
3122;BME280;1571;52.524;14.104;2024-03-02T01:56:04;100062.56;;;7.21;100.00
3122;BME280;1571;52.524;14.104;2024-03-02T01:58:32;100061.75;;;7.35;100.00
3122;BME280;1571;52.524;14.104;2024-03-02T02:01:00;100062.22;;;7.42;100.00
3122;BME280;1571;52.524;14.104;2024-03-02T02:03:29;100066.06;;;7.22;100.00
3122;BME280;1571;52.524;14.104;2024-03-02T02:05:57;100070.16;;;7.42;100.00
3122;BME280;1571;52.524;14.104;2024-03-02T02:08:27;100063.38;;;7.52;100.00
3122;BME280;1571;52.524;14.104;2024-03-02T02:10:55;100067.91;;;7.64;100.00
3122;BME280;1571;52.524;14.104;2024-03-02T02:13:24;100069.50;;;7.67;100.00
3122;BME280;1571;52.524;14.104;2024-03-02T02:15:52;100063.00;;;7.58;100.00
3122;BME280;1571;52.524;14.104;2024-03-02T02:18:21;100059.38;;;7.30;100.00
3122;BME280;1571;52.524;14.104;2024-03-02T02:20:49;100063.56;;;7.49;100.00
3122;BME280;1571;52.524;14.104;2024-03-02T02:23:19;100058.50;;;7.75;100.00
3122;BME280;1571;52.524;14.104;2024-03-02T02:25:47;100062.44;;;7.67;100.00
3122;BME280;1571;52.524;14.104;2024-03-02T02:28:16;100061.41;;;7.56;100.00
3122;BME280;1571;52.524;14.104;2024-03-02T02:30:45;100066.41;;;7.75;100.00
3122;BME280;1571;52.524;14.104;2024-03-02T02:33:13;100066.41;;;7.75;100.00
3122;BME280;1571;52.524;14.104;2024-03-02T02:35:41;100066.78;;;7.83;100.00
3122;BME280;1571;52.524;14.104;2024-03-02T02:38:10;100064.41;;;7.78;100.00
3122;BME280;1571;52.524;14.104;2024-03-02T02:40:39;100060.09;;;7.91;100.00
3122;BME280;1571;52.524;14.104;2024-03-02T02:43:09;100069.31;;;7.99;100.00
3122;BME280;1571;52.524;14.104;2024-03-02T02:45:37;100071.78;;;8.02;100.00
3122;BME280;1571;52.524;14.104;2024-03-02T02:48:06;100075.81;;;8.07;100.00
3122;BME280;1571;52.524;14.104;2024-03-02T02:50:34;100081.59;;;8.14;100.00
3122;BME280;1571;52.524;14.104;2024-03-02T02:53:03;100086.19;;;8.10;100.00
3122;BME280;1571;52.524;14.104;2024-03-02T02:55:32;100075.38;;;8.15;100.00
3122;BME280;1571;52.524;14.104;2024-03-02T02:58:01;100082.06;;;8.21;100.00
3122;BME280;1571;52.524;14.104;2024-03-02T03:00:29;100083.66;;;8.23;100.00
3122;BME280;1571;52.524;14.104;2024-03-02T03:02:58;100086.66;;;8.31;100.00
3122;BME280;1571;52.524;14.104;2024-03-02T03:05:26;100082.97;;;8.48;100.00
3122;BME280;1571;52.524;14.104;2024-03-02T03:07:54;100087.66;;;8.58;100.00
3122;BME280;1571;52.524;14.104;2024-03-02T03:10:22;100082.72;;;8.66;100.00
3122;BME280;1571;52.524;14.104;2024-03-02T03:12:53;100083.31;;;8.57;100.00
3122;BME280;1571;52.524;14.104;2024-03-02T03:15:24;100086.50;;;8.62;100.00
3122;BME280;1571;52.524;14.104;2024-03-02T03:17:53;100090.13;;;8.61;100.00
3122;BME280;1571;52.524;14.104;2024-03-02T03:20:21;100081.91;;;8.51;100.00
3122;BME280;1571;52.524;14.104;2024-03-02T03:22:50;100081.44;;;8.44;100.00
3122;BME280;1571;52.524;14.104;2024-03-02T03:25:19;100084.97;;;8.45;100.00
3122;BME280;1571;52.524;14.104;2024-03-02T03:27:47;100078.81;;;8.44;100.00
3122;BME280;1571;52.524;14.104;2024-03-02T03:30:15;100074.94;;;8.50;100.00
3122;BME280;1571;52.524;14.104;2024-03-02T03:32:45;100070.59;;;8.49;100.00
3122;BME280;1571;52.524;14.104;2024-03-02T03:35:15;100065.50;;;8.46;100.00
3122;BME280;1571;52.524;14.104;2024-03-02T03:37:43;100073.34;;;8.47;100.00
3122;BME280;1571;52.524;14.104;2024-03-02T03:40:12;100072.59;;;8.45;100.00
3122;BME280;1571;52.524;14.104;2024-03-02T03:42:41;100070.50;;;8.36;100.00
3122;BME280;1571;52.524;14.104;2024-03-02T03:45:09;100070.78;;;8.31;100.00
3122;BME280;1571;52.524;14.104;2024-03-02T03:47:38;100080.25;;;8.36;100.00
3122;BME280;1571;52.524;14.104;2024-03-02T03:50:08;100096.59;;;8.42;100.00
3122;BME280;1571;52.524;14.104;2024-03-02T03:52:36;100087.22;;;8.37;100.00
3122;BME280;1571;52.524;14.104;2024-03-02T03:55:05;100087.19;;;8.65;100.00
3122;BME280;1571;52.524;14.104;2024-03-02T03:57:33;100082.63;;;8.40;100.00
3122;BME280;1571;52.524;14.104;2024-03-02T04:00:03;100085.44;;;8.51;100.00
3122;BME280;1571;52.524;14.104;2024-03-02T04:02:38;100079.94;;;8.54;100.00
3122;BME280;1571;52.524;14.104;2024-03-02T04:05:08;100077.06;;;8.58;100.00
3122;BME280;1571;52.524;14.104;2024-03-02T04:07:38;100086.72;;;8.59;100.00
3122;BME280;1571;52.524;14.104;2024-03-02T04:10:08;100094.72;;;8.71;100.00
3122;BME280;1571;52.524;14.104;2024-03-02T04:12:37;100091.09;;;8.45;100.00
3122;BME280;1571;52.524;14.104;2024-03-02T04:15:05;100093.53;;;8.48;100.00
3122;BME280;1571;52.524;14.104;2024-03-02T04:17:34;100096.75;;;8.53;100.00
3122;BME280;1571;52.524;14.104;2024-03-02T04:20:03;100106.19;;;8.58;100.00
3122;BME280;1571;52.524;14.104;2024-03-02T04:22:34;100101.03;;;8.69;100.00
3122;BME280;1571;52.524;14.104;2024-03-02T04:25:04;100102.50;;;8.60;100.00
3122;BME280;1571;52.524;14.104;2024-03-02T04:27:34;100118.41;;;8.87;100.00
3122;BME280;1571;52.524;14.104;2024-03-02T04:30:04;100110.09;;;8.79;100.00
3122;BME280;1571;52.524;14.104;2024-03-02T04:32:33;100113.44;;;8.68;100.00
3122;BME280;1571;52.524;14.104;2024-03-02T04:35:04;100113.63;;;8.65;100.00
3122;BME280;1571;52.524;14.104;2024-03-02T04:37:35;100121.03;;;8.87;100.00
3122;BME280;1571;52.524;14.104;2024-03-02T04:40:04;100115.38;;;8.79;100.00
3122;BME280;1571;52.524;14.104;2024-03-02T04:42:35;100124.09;;;8.81;100.00
3122;BME280;1571;52.524;14.104;2024-03-02T04:45:04;100120.69;;;8.79;100.00
3122;BME280;1571;52.524;14.104;2024-03-02T04:47:32;100126.94;;;8.78;100.00
3122;BME280;1571;52.524;14.104;2024-03-02T04:50:01;100128.22;;;8.85;100.00
3122;BME280;1571;52.524;14.104;2024-03-02T04:52:29;100124.47;;;8.75;100.00
3122;BME280;1571;52.524;14.104;2024-03-02T04:54:59;100116.59;;;8.61;100.00
3122;BME280;1571;52.524;14.104;2024-03-02T04:57:56;100129.44;;;8.52;100.00
3122;BME280;1571;52.524;14.104;2024-03-02T05:00:25;100129.53;;;8.65;100.00
3122;BME280;1571;52.524;14.104;2024-03-02T05:02:53;100118.22;;;8.49;100.00
3122;BME280;1571;52.524;14.104;2024-03-02T05:05:21;100121.22;;;8.57;100.00
3122;BME280;1571;52.524;14.104;2024-03-02T05:07:49;100121.34;;;8.41;100.00
3122;BME280;1571;52.524;14.104;2024-03-02T05:10:19;100119.06;;;8.49;100.00
3122;BME280;1571;52.524;14.104;2024-03-02T05:12:47;100128.69;;;8.65;100.00
3122;BME280;1571;52.524;14.104;2024-03-02T05:15:24;100133.84;;;8.66;100.00
3122;BME280;1571;52.524;14.104;2024-03-02T05:17:52;100132.63;;;8.72;100.00
3122;BME280;1571;52.524;14.104;2024-03-02T05:20:21;100137.63;;;8.62;100.00
3122;BME280;1571;52.524;14.104;2024-03-02T05:22:49;100135.56;;;8.67;100.00
3122;BME280;1571;52.524;14.104;2024-03-02T05:25:19;100144.13;;;8.71;100.00
3122;BME280;1571;52.524;14.104;2024-03-02T05:27:47;100146.63;;;8.60;100.00
3122;BME280;1571;52.524;14.104;2024-03-02T05:30:15;100144.72;;;8.62;100.00
3122;BME280;1571;52.524;14.104;2024-03-02T05:32:44;100152.31;;;8.53;100.00
3122;BME280;1571;52.524;14.104;2024-03-02T05:35:12;100161.91;;;8.69;100.00
3122;BME280;1571;52.524;14.104;2024-03-02T05:37:40;100168.53;;;8.76;100.00
3122;BME280;1571;52.524;14.104;2024-03-02T05:40:09;100175.75;;;8.87;100.00
3122;BME280;1571;52.524;14.104;2024-03-02T05:42:39;100174.16;;;8.84;100.00
3122;BME280;1571;52.524;14.104;2024-03-02T05:45:08;100187.53;;;9.10;100.00
3122;BME280;1571;52.524;14.104;2024-03-02T05:47:37;100180.72;;;9.06;100.00
3122;BME280;1571;52.524;14.104;2024-03-02T05:50:06;100175.72;;;8.74;100.00
3122;BME280;1571;52.524;14.104;2024-03-02T05:52:35;100188.69;;;9.06;100.00
3122;BME280;1571;52.524;14.104;2024-03-02T05:55:04;100189.75;;;9.16;100.00
3122;BME280;1571;52.524;14.104;2024-03-02T05:57:32;100192.41;;;8.89;100.00
3122;BME280;1571;52.524;14.104;2024-03-02T06:00:16;100194.00;;;8.91;100.00
3122;BME280;1571;52.524;14.104;2024-03-02T06:02:45;100196.09;;;8.86;100.00
3122;BME280;1571;52.524;14.104;2024-03-02T06:05:13;100194.06;;;8.63;100.00
3122;BME280;1571;52.524;14.104;2024-03-02T06:07:42;100198.97;;;8.69;100.00
3122;BME280;1571;52.524;14.104;2024-03-02T06:10:11;100208.41;;;8.73;100.00
3122;BME280;1571;52.524;14.104;2024-03-02T06:12:40;100219.75;;;8.75;100.00
3122;BME280;1571;52.524;14.104;2024-03-02T06:15:09;100207.94;;;8.81;100.00
3122;BME280;1571;52.524;14.104;2024-03-02T06:17:39;100218.84;;;9.03;100.00
3122;BME280;1571;52.524;14.104;2024-03-02T06:20:08;100217.72;;;8.93;100.00
3122;BME280;1571;52.524;14.104;2024-03-02T06:22:37;100223.47;;;9.00;100.00
3122;BME280;1571;52.524;14.104;2024-03-02T06:25:05;100226.03;;;9.01;100.00
3122;BME280;1571;52.524;14.104;2024-03-02T06:27:34;100238.63;;;8.98;100.00
3122;BME280;1571;52.524;14.104;2024-03-02T06:30:02;100246.19;;;9.04;100.00
3122;BME280;1571;52.524;14.104;2024-03-02T06:32:31;100244.28;;;9.06;100.00
3122;BME280;1571;52.524;14.104;2024-03-02T06:35:01;100246.03;;;9.20;100.00
3122;BME280;1571;52.524;14.104;2024-03-02T06:37:31;100246.34;;;9.15;100.00
3122;BME280;1571;52.524;14.104;2024-03-02T06:39:59;100241.41;;;9.23;100.00
3122;BME280;1571;52.524;14.104;2024-03-02T06:42:27;100253.47;;;9.27;100.00
3122;BME280;1571;52.524;14.104;2024-03-02T06:45:01;100231.00;;;9.20;100.00
3122;BME280;1571;52.524;14.104;2024-03-02T06:47:29;100239.47;;;9.25;100.00
3122;BME280;1571;52.524;14.104;2024-03-02T06:49:58;100236.69;;;9.14;100.00
3122;BME280;1571;52.524;14.104;2024-03-02T06:52:28;100248.53;;;9.08;100.00
3122;BME280;1571;52.524;14.104;2024-03-02T06:54:56;100251.25;;;9.07;100.00
3122;BME280;1571;52.524;14.104;2024-03-02T06:57:24;100251.47;;;9.04;100.00
3122;BME280;1571;52.524;14.104;2024-03-02T06:59:53;100257.47;;;9.20;100.00
3122;BME280;1571;52.524;14.104;2024-03-02T07:02:25;100256.94;;;9.15;100.00
3122;BME280;1571;52.524;14.104;2024-03-02T07:04:53;100266.09;;;9.09;100.00
3122;BME280;1571;52.524;14.104;2024-03-02T07:07:22;100269.28;;;9.29;100.00
3122;BME280;1571;52.524;14.104;2024-03-02T07:09:51;100269.28;;;9.29;100.00
3122;BME280;1571;52.524;14.104;2024-03-02T07:12:20;100273.44;;;9.33;100.00
3122;BME280;1571;52.524;14.104;2024-03-02T07:14:48;100280.72;;;9.29;100.00
3122;BME280;1571;52.524;14.104;2024-03-02T07:17:38;100282.06;;;9.22;100.00
3122;BME280;1571;52.524;14.104;2024-03-02T07:20:07;100294.38;;;9.23;100.00
3122;BME280;1571;52.524;14.104;2024-03-02T07:22:35;100294.75;;;9.17;100.00
3122;BME280;1571;52.524;14.104;2024-03-02T07:25:09;100295.25;;;8.95;100.00
3122;BME280;1571;52.524;14.104;2024-03-02T07:27:57;100305.56;;;9.00;100.00
3122;BME280;1571;52.524;14.104;2024-03-02T07:30:26;100320.94;;;9.07;100.00
3122;BME280;1571;52.524;14.104;2024-03-02T07:32:55;100327.84;;;9.24;100.00
3122;BME280;1571;52.524;14.104;2024-03-02T07:35:24;100315.38;;;9.26;100.00
3122;BME280;1571;52.524;14.104;2024-03-02T07:37:54;100322.34;;;9.42;100.00
3122;BME280;1571;52.524;14.104;2024-03-02T07:40:24;100318.69;;;9.57;100.00
3122;BME280;1571;52.524;14.104;2024-03-02T07:42:53;100316.38;;;9.65;100.00
3122;BME280;1571;52.524;14.104;2024-03-02T07:45:22;100314.72;;;9.77;100.00
3122;BME280;1571;52.524;14.104;2024-03-02T07:47:50;100306.13;;;9.46;100.00
3122;BME280;1571;52.524;14.104;2024-03-02T07:50:18;100308.88;;;9.45;100.00
3122;BME280;1571;52.524;14.104;2024-03-02T07:52:47;100311.47;;;9.59;100.00
3122;BME280;1571;52.524;14.104;2024-03-02T07:55:15;100312.66;;;9.41;100.00
3122;BME280;1571;52.524;14.104;2024-03-02T07:57:45;100315.13;;;9.44;100.00
3122;BME280;1571;52.524;14.104;2024-03-02T08:00:14;100317.97;;;9.41;100.00
3122;BME280;1571;52.524;14.104;2024-03-02T08:02:42;100321.56;;;9.40;100.00
3122;BME280;1571;52.524;14.104;2024-03-02T08:05:11;100323.25;;;9.41;100.00
3122;BME280;1571;52.524;14.104;2024-03-02T08:07:39;100336.22;;;9.45;100.00
3122;BME280;1571;52.524;14.104;2024-03-02T08:10:08;100331.97;;;9.43;100.00
3122;BME280;1571;52.524;14.104;2024-03-02T08:12:37;100332.66;;;9.59;100.00
3122;BME280;1571;52.524;14.104;2024-03-02T08:15:07;100339.00;;;9.44;100.00
3122;BME280;1571;52.524;14.104;2024-03-02T08:17:35;100334.81;;;9.40;100.00
3122;BME280;1571;52.524;14.104;2024-03-02T08:20:06;100334.69;;;9.55;100.00
3122;BME280;1571;52.524;14.104;2024-03-02T08:22:35;100328.41;;;9.29;100.00
3122;BME280;1571;52.524;14.104;2024-03-02T08:25:04;100326.88;;;9.40;100.00
3122;BME280;1571;52.524;14.104;2024-03-02T08:27:32;100338.31;;;9.40;100.00
3122;BME280;1571;52.524;14.104;2024-03-02T08:30:01;100339.56;;;9.34;100.00
3122;BME280;1571;52.524;14.104;2024-03-02T08:32:34;100345.75;;;9.48;100.00
3122;BME280;1571;52.524;14.104;2024-03-02T08:35:04;100343.28;;;9.59;100.00
3122;BME280;1571;52.524;14.104;2024-03-02T08:37:32;100342.88;;;9.65;100.00
3122;BME280;1571;52.524;14.104;2024-03-02T08:40:00;100341.50;;;9.87;100.00
3122;BME280;1571;52.524;14.104;2024-03-02T08:42:31;100327.03;;;9.78;100.00
3122;BME280;1571;52.524;14.104;2024-03-02T08:44:59;100329.19;;;9.86;100.00
3122;BME280;1571;52.524;14.104;2024-03-02T08:47:28;100322.88;;;9.74;100.00
3122;BME280;1571;52.524;14.104;2024-03-02T08:49:57;100314.38;;;9.96;100.00
3122;BME280;1571;52.524;14.104;2024-03-02T08:52:28;100309.28;;;10.06;100.00
3122;BME280;1571;52.524;14.104;2024-03-02T08:54:56;100296.34;;;10.01;100.00
3122;BME280;1571;52.524;14.104;2024-03-02T08:57:24;100302.34;;;10.30;100.00
3122;BME280;1571;52.524;14.104;2024-03-02T08:59:53;100294.50;;;10.67;100.00
3122;BME280;1571;52.524;14.104;2024-03-02T09:02:21;100282.63;;;10.60;100.00
3122;BME280;1571;52.524;14.104;2024-03-02T09:04:50;100278.75;;;10.90;100.00
3122;BME280;1571;52.524;14.104;2024-03-02T09:07:20;100274.09;;;10.80;100.00
3122;BME280;1571;52.524;14.104;2024-03-02T09:09:48;100273.00;;;10.96;100.00
3122;BME280;1571;52.524;14.104;2024-03-02T09:12:16;100265.66;;;11.36;100.00
3122;BME280;1571;52.524;14.104;2024-03-02T09:14:45;100243.19;;;11.16;100.00
3122;BME280;1571;52.524;14.104;2024-03-02T09:17:14;100237.88;;;11.16;100.00
3122;BME280;1571;52.524;14.104;2024-03-02T09:19:42;100242.69;;;10.74;100.00
3122;BME280;1571;52.524;14.104;2024-03-02T09:22:10;100246.66;;;11.30;100.00
3122;BME280;1571;52.524;14.104;2024-03-02T09:24:40;100238.25;;;11.36;100.00
3122;BME280;1571;52.524;14.104;2024-03-02T09:27:08;100236.56;;;11.70;100.00
3122;BME280;1571;52.524;14.104;2024-03-02T09:29:37;100226.22;;;12.02;100.00
3122;BME280;1571;52.524;14.104;2024-03-02T09:32:06;100220.56;;;11.83;100.00
3122;BME280;1571;52.524;14.104;2024-03-02T09:34:35;100225.25;;;11.79;100.00
3122;BME280;1571;52.524;14.104;2024-03-02T09:37:03;100221.69;;;11.92;100.00
3122;BME280;1571;52.524;14.104;2024-03-02T09:39:32;100226.53;;;11.62;100.00
3122;BME280;1571;52.524;14.104;2024-03-02T09:42:03;100224.13;;;11.71;100.00
3122;BME280;1571;52.524;14.104;2024-03-02T09:44:32;100219.31;;;12.11;100.00
3122;BME280;1571;52.524;14.104;2024-03-02T09:47:01;100216.03;;;11.96;100.00
3122;BME280;1571;52.524;14.104;2024-03-02T09:49:29;100225.22;;;11.68;100.00
3122;BME280;1571;52.524;14.104;2024-03-02T09:51:57;100230.03;;;11.63;100.00
3122;BME280;1571;52.524;14.104;2024-03-02T09:54:26;100239.47;;;11.67;100.00
3122;BME280;1571;52.524;14.104;2024-03-02T09:56:55;100234.50;;;11.62;100.00
3122;BME280;1571;52.524;14.104;2024-03-02T09:59:25;100235.09;;;11.66;100.00
3122;BME280;1571;52.524;14.104;2024-03-02T10:01:56;100242.13;;;11.19;100.00
3122;BME280;1571;52.524;14.104;2024-03-02T10:04:25;100244.63;;;11.33;100.00
3122;BME280;1571;52.524;14.104;2024-03-02T10:07:11;100237.00;;;11.29;100.00
3122;BME280;1571;52.524;14.104;2024-03-02T10:09:40;100233.75;;;11.84;100.00
3122;BME280;1571;52.524;14.104;2024-03-02T10:12:09;100241.34;;;11.54;100.00
3122;BME280;1571;52.524;14.104;2024-03-02T10:14:40;100246.16;;;11.49;100.00
3122;BME280;1571;52.524;14.104;2024-03-02T10:17:09;100243.84;;;11.79;100.00
3122;BME280;1571;52.524;14.104;2024-03-02T10:19:39;100246.44;;;11.57;100.00
3122;BME280;1571;52.524;14.104;2024-03-02T10:22:09;100252.66;;;11.69;100.00
3122;BME280;1571;52.524;14.104;2024-03-02T10:24:39;100249.81;;;11.11;100.00
3122;BME280;1571;52.524;14.104;2024-03-02T10:27:09;100259.97;;;11.54;100.00
3122;BME280;1571;52.524;14.104;2024-03-02T10:29:40;100251.50;;;11.49;100.00
3122;BME280;1571;52.524;14.104;2024-03-02T10:32:09;100258.34;;;11.75;100.00
3122;BME280;1571;52.524;14.104;2024-03-02T10:34:40;100254.00;;;11.50;100.00
3122;BME280;1571;52.524;14.104;2024-03-02T10:37:10;100249.38;;;11.65;100.00
3122;BME280;1571;52.524;14.104;2024-03-02T10:39:39;100237.63;;;11.56;99.34
3122;BME280;1571;52.524;14.104;2024-03-02T10:42:08;100229.28;;;12.32;98.04
3122;BME280;1571;52.524;14.104;2024-03-02T10:44:37;100244.84;;;11.78;97.38
3122;BME280;1571;52.524;14.104;2024-03-02T10:47:08;100240.81;;;11.97;98.57
3122;BME280;1571;52.524;14.104;2024-03-02T10:49:38;100238.88;;;11.99;97.93
3122;BME280;1571;52.524;14.104;2024-03-02T10:52:06;100231.16;;;11.48;98.56
3122;BME280;1571;52.524;14.104;2024-03-02T10:54:36;100224.06;;;11.83;99.54
3122;BME280;1571;52.524;14.104;2024-03-02T10:57:07;100223.53;;;11.91;99.19
3122;BME280;1571;52.524;14.104;2024-03-02T10:59:44;100222.03;;;11.87;98.22
3122;BME280;1571;52.524;14.104;2024-03-02T11:02:20;100218.97;;;12.27;96.41
3122;BME280;1571;52.524;14.104;2024-03-02T11:04:49;100217.91;;;12.29;95.05
3122;BME280;1571;52.524;14.104;2024-03-02T11:07:19;100207.97;;;12.88;93.37
3122;BME280;1571;52.524;14.104;2024-03-02T11:10:01;100200.84;;;12.32;92.71
3122;BME280;1571;52.524;14.104;2024-03-02T11:12:38;100219.28;;;12.00;94.33
3122;BME280;1571;52.524;14.104;2024-03-02T11:15:10;100223.97;;;12.32;94.84
3122;BME280;1571;52.524;14.104;2024-03-02T11:17:40;100224.38;;;13.16;92.65
3122;BME280;1571;52.524;14.104;2024-03-02T11:20:09;100218.03;;;12.62;92.35
3122;BME280;1571;52.524;14.104;2024-03-02T11:22:38;100214.25;;;12.31;92.62
3122;BME280;1571;52.524;14.104;2024-03-02T11:25:22;100215.00;;;12.44;92.84
3122;BME280;1571;52.524;14.104;2024-03-02T11:28:04;100207.25;;;12.41;93.91
3122;BME280;1571;52.524;14.104;2024-03-02T11:30:51;100215.44;;;12.15;93.67
3122;BME280;1571;52.524;14.104;2024-03-02T11:33:26;100217.16;;;12.16;92.46
3122;BME280;1571;52.524;14.104;2024-03-02T11:35:57;100216.88;;;11.97;93.56
3122;BME280;1571;52.524;14.104;2024-03-02T11:38:33;100212.09;;;12.47;92.50
3122;BME280;1571;52.524;14.104;2024-03-02T11:41:05;100203.34;;;12.90;91.33
3122;BME280;1571;52.524;14.104;2024-03-02T11:43:37;100192.47;;;13.37;89.83
3122;BME280;1571;52.524;14.104;2024-03-02T11:46:07;100189.31;;;13.64;86.80
3122;BME280;1571;52.524;14.104;2024-03-02T11:48:38;100181.13;;;13.56;84.28
3122;BME280;1571;52.524;14.104;2024-03-02T11:51:07;100193.72;;;13.10;85.29
3122;BME280;1571;52.524;14.104;2024-03-02T11:53:38;100197.69;;;13.38;85.65
3122;BME280;1571;52.524;14.104;2024-03-02T11:56:09;100199.47;;;12.83;86.85
3122;BME280;1571;52.524;14.104;2024-03-02T11:58:39;100207.34;;;12.96;87.46
3122;BME280;1571;52.524;14.104;2024-03-02T12:01:08;100207.03;;;13.10;86.22
3122;BME280;1571;52.524;14.104;2024-03-02T12:03:39;100216.88;;;13.09;85.89
3122;BME280;1571;52.524;14.104;2024-03-02T12:06:09;100216.19;;;12.74;86.31
3122;BME280;1571;52.524;14.104;2024-03-02T12:08:38;100213.00;;;13.02;86.31
3122;BME280;1571;52.524;14.104;2024-03-02T12:11:07;100221.75;;;12.93;86.85
3122;BME280;1571;52.524;14.104;2024-03-02T12:13:35;100210.13;;;12.83;87.85
3122;BME280;1571;52.524;14.104;2024-03-02T12:16:04;100211.31;;;12.90;87.00
3122;BME280;1571;52.524;14.104;2024-03-02T12:18:33;100204.94;;;12.93;86.46
3122;BME280;1571;52.524;14.104;2024-03-02T12:21:03;100206.94;;;13.55;85.67
3122;BME280;1571;52.524;14.104;2024-03-02T12:23:34;100207.41;;;13.17;84.64
3122;BME280;1571;52.524;14.104;2024-03-02T12:26:03;100209.13;;;14.03;83.86
3122;BME280;1571;52.524;14.104;2024-03-02T12:28:32;100202.88;;;14.14;83.46
3122;BME280;1571;52.524;14.104;2024-03-02T12:31:01;100193.09;;;14.34;82.75
3122;BME280;1571;52.524;14.104;2024-03-02T12:33:29;100188.97;;;14.51;80.23
3122;BME280;1571;52.524;14.104;2024-03-02T12:35:58;100189.00;;;13.99;81.53
3122;BME280;1571;52.524;14.104;2024-03-02T12:38:28;100209.75;;;13.53;82.62
3122;BME280;1571;52.524;14.104;2024-03-02T12:40:56;100209.34;;;14.00;82.10
3122;BME280;1571;52.524;14.104;2024-03-02T12:43:29;100206.06;;;14.08;80.96
3122;BME280;1571;52.524;14.104;2024-03-02T12:45:58;100199.72;;;14.09;81.13
3122;BME280;1571;52.524;14.104;2024-03-02T12:48:26;100197.78;;;13.90;82.64
3122;BME280;1571;52.524;14.104;2024-03-02T12:50:55;100212.94;;;13.25;83.19
3122;BME280;1571;52.524;14.104;2024-03-02T12:53:23;100220.75;;;13.05;84.47
3122;BME280;1571;52.524;14.104;2024-03-02T12:55:53;100213.34;;;13.31;84.29
3122;BME280;1571;52.524;14.104;2024-03-02T12:58:22;100209.03;;;13.72;82.98
3122;BME280;1571;52.524;14.104;2024-03-02T13:01:05;100209.22;;;13.16;83.90
3122;BME280;1571;52.524;14.104;2024-03-02T13:03:35;100212.38;;;13.10;84.27
3122;BME280;1571;52.524;14.104;2024-03-02T13:06:04;100213.25;;;13.54;83.09
3122;BME280;1571;52.524;14.104;2024-03-02T13:08:32;100210.97;;;13.49;82.13
3122;BME280;1571;52.524;14.104;2024-03-02T13:11:03;100207.50;;;13.26;82.14
3122;BME280;1571;52.524;14.104;2024-03-02T13:13:34;100208.28;;;13.49;81.61